Time;durP1;ratioP1;P1;durP2;ratioP2;P2;SDS_P1;SDS_P2;PMS_P1;PMS_P2;Temp;Humidity;BMP_temperature;BMP_pressure;BME280_temperature;BME280_humidity;BME280_pressure;Samples;Min_cycle;Max_cycle;Signal;HPM_P1;HPM_P2
2021/07/07 00:00:42;;;;;;;3.30;2.20;;;26.00;33.80;;;;;;4146989;28;20748;-49
2021/07/07 00:02:44;;;;;;;4.03;1.98;;;26.20;32.90;;;;;;4145627;28;20160;-54
2021/07/07 00:04:49;;;;;;;2.00;1.73;;;;;;;;;;4145473;28;20032;-47
2021/07/07 00:06:51;;;;;;;2.42;1.67;;;26.40;32.70;;;;;;4148521;28;20037;-47
2021/07/07 00:08:53;;;;;;;2.78;1.95;;;26.60;32.10;;;;;;4148272;28;20053;-47
2021/07/07 00:10:56;;;;;;;1.77;1.45;;;26.50;32.60;;;;;;4143505;28;20040;-49
2021/07/07 00:12:59;;;;;;;2.25;1.55;;;;;;;;;;4147471;28;20024;-48
2021/07/07 00:15:01;;;;;;;2.80;1.75;;;;;;;;;;4149153;28;20915;-49
2021/07/07 00:17:03;;;;;;;2.63;1.83;;;26.60;32.60;;;;;;4145806;28;20040;-50
2021/07/07 00:19:06;;;;;;;2.08;1.65;;;27.20;32.30;;;;;;4114113;28;20041;-47
2021/07/07 00:21:08;;;;;;;4.27;1.67;;;27.40;32.30;;;;;;4132010;28;20168;-49
2021/07/07 00:23:12;;;;;;;2.17;1.52;;;27.50;32.00;;;;;;4129382;28;20335;-52
2021/07/07 00:25:13;;;;;;;;;;;27.30;31.80;;;;;;4133659;28;20041;-47
2021/07/07 00:27:15;;;;;;;2.53;1.70;;;27.10;32.10;;;;;;4131481;28;20027;-49
2021/07/07 00:29:18;;;;;;;2.20;1.65;;;26.90;32.30;;;;;;4132059;28;20508;-49
2021/07/07 00:31:20;;;;;;;2.83;1.92;;;26.70;32.40;;;;;;4130110;28;20067;-50
2021/07/07 00:33:22;;;;;;;2.10;1.70;;;26.50;32.50;;;;;;4131019;28;20107;-49
2021/07/07 00:35:25;;;;;;;2.40;1.85;;;26.40;32.50;;;;;;4131835;28;21210;-48
2021/07/07 00:37:27;;;;;;;2.30;1.88;;;26.30;32.70;;;;;;4126673;28;20078;-51
2021/07/07 00:39:29;;;;;;;2.78;1.77;;;26.20;32.70;;;;;;4129674;28;20041;-51
2021/07/07 00:41:31;;;;;;;1.85;1.55;;;26.10;32.70;;;;;;4130763;28;20175;-47
2021/07/07 00:43:34;;;;;;;2.15;1.60;;;26.10;32.80;;;;;;4130317;28;20041;-49
2021/07/07 00:45:36;;;;;;;2.65;1.60;;;26.00;33.00;;;;;;4132016;28;21056;-45
2021/07/07 00:47:38;;;;;;;2.22;1.70;;;26.00;33.10;;;;;;4132164;28;20125;-47
2021/07/07 00:49:41;;;;;;;2.92;1.85;;;25.90;33.20;;;;;;4133063;28;20025;-49
2021/07/07 00:51:43;;;;;;;1.85;1.60;;;25.80;33.50;;;;;;4131484;28;20036;-51
2021/07/07 00:53:46;;;;;;;2.42;1.80;;;25.80;33.40;;;;;;4132276;28;20029;-53
2021/07/07 00:55:48;;;;;;;2.42;1.88;;;25.80;33.30;;;;;;4131919;28;20044;-50
2021/07/07 00:57:51;;;;;;;2.38;1.60;;;25.80;33.30;;;;;;4130780;28;20375;-52
2021/07/07 00:59:56;;;;;;;2.38;1.80;;;25.90;33.60;;;;;;4132241;28;20348;-52
2021/07/07 01:02:00;;;;;;;1.60;1.50;;;25.90;33.80;;;;;;4129490;28;20137;-52
2021/07/07 01:04:04;;;;;;;2.17;1.67;;;25.90;33.90;;;;;;4132420;28;20100;-49
2021/07/07 01:06:06;;;;;;;2.20;1.90;;;25.90;33.90;;;;;;4131861;28;20033;-48
2021/07/07 01:08:08;;;;;;;1.73;1.63;;;25.90;34.00;;;;;;4130479;28;20045;-47
2021/07/07 01:10:12;;;;;;;2.65;2.10;;;26.00;34.20;;;;;;4129436;28;20534;-45
2021/07/07 01:12:15;;;;;;;2.78;2.30;;;26.00;34.20;;;;;;4129405;28;20057;-48
2021/07/07 01:14:17;;;;;;;2.73;2.50;;;26.10;34.20;;;;;;4127997;28;20040;-50
2021/07/07 01:16:19;;;;;;;2.90;2.60;;;26.10;34.10;;;;;;4132159;28;20658;-47
2021/07/07 01:18:21;;;;;;;3.00;2.70;;;26.10;34.10;;;;;;4128013;28;20522;-49
2021/07/07 01:20:26;;;;;;;2.80;2.60;;;26.20;34.10;;;;;;4131563;28;20044;-49
2021/07/07 01:22:29;;;;;;;3.13;2.63;;;26.30;34.10;;;;;;4128634;28;20041;-47
2021/07/07 01:24:31;;;;;;;2.70;2.50;;;26.30;33.90;;;;;;4131363;28;20051;-48
2021/07/07 01:26:33;;;;;;;2.78;2.45;;;26.30;33.90;;;;;;4131828;28;20187;-46
2021/07/07 01:28:36;;;;;;;2.85;2.42;;;26.40;34.10;;;;;;4130003;28;20456;-45
2021/07/07 01:30:38;;;;;;;3.15;2.60;;;26.40;33.70;;;;;;4131854;28;20370;-50
2021/07/07 01:32:41;;;;;;;2.38;2.15;;;26.50;33.90;;;;;;4128454;28;20431;-50
2021/07/07 01:34:43;;;;;;;2.42;2.10;;;26.60;33.80;;;;;;4132430;28;20030;-53
2021/07/07 01:36:45;;;;;;;2.92;1.98;;;26.60;33.70;;;;;;4128995;28;20470;-48
2021/07/07 01:38:47;;;;;;;4.85;2.90;;;26.70;33.90;;;;;;4132481;28;20029;-53
2021/07/07 01:40:49;;;;;;;5.22;3.35;;;26.70;34.00;;;;;;4128188;28;20748;-52
2021/07/07 01:42:52;;;;;;;5.38;3.63;;;26.80;33.90;;;;;;4130228;28;20037;-52
2021/07/07 01:44:54;;;;;;;5.72;3.95;;;26.90;33.80;;;;;;4129649;28;20114;-48
2021/07/07 01:46:56;;;;;;;5.15;3.28;;;27.00;33.80;;;;;;4128693;28;21287;-49
2021/07/07 01:48:59;;;;;;;5.22;3.35;;;27.00;33.50;;;;;;4128894;28;20828;-48
2021/07/07 01:51:01;;;;;;;4.38;2.92;;;27.10;33.50;;;;;;4129854;28;20355;-48
2021/07/07 01:53:03;;;;;;;3.90;2.80;;;;;;;;;;4131865;28;20060;-51
2021/07/07 01:55:06;;;;;;;4.90;2.92;;;;;;;;;;4128395;28;20509;-50
2021/07/07 01:57:08;;;;;;;4.68;2.78;;;;;;;;;;4129428;28;20460;-48
2021/07/07 01:59:10;;;;;;;5.00;2.72;;;;;;;;;;4128909;28;20079;-50
2021/07/07 02:01:12;;;;;;;3.90;2.60;;;;;;;;;;4131624;28;20022;-54
2021/07/07 02:03:14;;;;;;;3.10;2.20;;;;;;;;;;4130537;28;20397;-48
2021/07/07 02:05:17;;;;;;;2.67;1.92;;;;;;;;;;4130283;28;20161;-46
2021/07/07 02:07:19;;;;;;;3.65;2.33;;;;;;;;;;4130062;28;20588;-53
2021/07/07 02:09:21;;;;;;;2.63;1.85;;;;;;;;;;4131852;28;20115;-49
2021/07/07 02:11:23;;;;;;;2.53;1.65;;;;;;;;;;4129460;28;20172;-50
2021/07/07 02:13:25;;;;;;;2.75;1.88;;;27.10;33.50;;;;;;4127394;28;20083;-48
2021/07/07 02:15:30;;;;;;;17.38;2.08;;;27.90;32.80;;;;;;4128689;28;20033;-54
2021/07/07 02:17:32;;;;;;;2.40;1.80;;;27.90;33.80;;;;;;4124170;28;20049;-52
2021/07/07 02:19:34;;;;;;;2.38;1.52;;;27.70;34.00;;;;;;4126525;28;20620;-49
2021/07/07 02:21:36;;;;;;;3.13;1.58;;;27.60;34.50;;;;;;4123459;28;20485;-49
2021/07/07 02:23:39;;;;;;;1.90;1.27;;;27.40;34.90;;;;;;4127359;28;20033;-53
2021/07/07 02:25:46;;;;;;;2.63;1.67;;;27.20;35.60;;;;;;4130827;28;20246;-46
2021/07/07 02:27:49;;;;;;;1.65;1.42;;;27.10;35.90;;;;;;4131794;28;20045;-48
2021/07/07 02:29:51;;;;;;;2.58;1.45;;;26.90;36.10;;;;;;4131422;28;20651;-49
2021/07/07 02:31:53;;;;;;;2.72;1.67;;;26.70;36.50;;;;;;4134243;28;20047;-53
2021/07/07 02:33:55;;;;;;;2.78;1.38;;;26.60;36.40;;;;;;4130660;28;20164;-53
2021/07/07 02:35:57;;;;;;;1.67;1.30;;;26.50;36.80;;;;;;4135629;28;20045;-48
2021/07/07 02:38:00;;;;;;;1.95;1.40;;;26.30;36.90;;;;;;4132465;28;20746;-52
2021/07/07 02:40:06;;;;;;;2.03;1.40;;;26.20;36.40;;;;;;4134167;28;20040;-51
2021/07/07 02:42:08;;;;;;;2.78;1.40;;;26.10;37.50;;;;;;4134646;28;20049;-49
2021/07/07 02:44:10;;;;;;;2.60;1.45;;;26.00;37.50;;;;;;4135524;28;20305;-53
2021/07/07 02:46:13;;;;;;;1.83;1.40;;;25.90;37.90;;;;;;4135200;28;20275;-58
2021/07/07 02:48:16;;;;;;;1.75;1.40;;;25.80;38.00;;;;;;4137349;28;20029;-53
2021/07/07 02:50:20;;;;;;;2.00;1.27;;;25.70;38.80;;;;;;4135387;28;20086;-52
2021/07/07 02:52:22;;;;;;;1.90;1.40;;;25.60;38.30;;;;;;4138076;28;20108;-52
2021/07/07 02:54:24;;;;;;;2.50;1.40;;;25.50;38.40;;;;;;4148991;28;20037;-52
2021/07/07 02:56:27;;;;;;;2.40;1.40;;;25.40;38.10;;;;;;4159820;28;20060;-55
2021/07/07 03:04:35;;;;;;;6.63;1.38;;;25.10;38.30;;;;;;4123611;28;20088;-51
2021/07/07 03:06:37;;;;;;;5.57;1.42;;;;;;;;;;4134359;28;20036;-51
2021/07/07 03:08:43;;;;;;;2.83;1.40;;;;;;;;;;4133736;28;20030;-50
2021/07/07 03:10:46;;;;;;;2.25;1.40;;;25.10;38.70;;;;;;4132677;28;20089;-46
2021/07/07 03:12:48;;;;;;;7.10;1.25;;;24.90;39.10;;;;;;4135692;28;20053;-52
2021/07/07 03:14:50;;;;;;;1.60;1.30;;;24.80;39.40;;;;;;4134034;28;20087;-53
2021/07/07 03:16:52;;;;;;;1.90;1.30;;;24.70;39.40;;;;;;4133454;28;20033;-49
2021/07/07 03:18:54;;;;;;;1.70;1.23;;;24.70;39.20;;;;;;4133099;28;21805;-50
2021/07/07 03:20:57;;;;;;;2.80;1.20;;;24.60;39.50;;;;;;4148603;28;20048;-49
2021/07/07 03:22:59;;;;;;;1.30;1.20;;;24.60;39.60;;;;;;4132625;28;20310;-55
2021/07/07 03:25:01;;;;;;;3.13;1.50;;;24.50;39.90;;;;;;4131441;28;20037;-55
2021/07/07 03:27:03;;;;;;;2.40;1.10;;;24.50;40.00;;;;;;4134019;28;20135;-52
2021/07/07 03:29:06;;;;;;;2.47;1.40;;;24.40;40.00;;;;;;4132696;28;20068;-56
2021/07/07 03:31:08;;;;;;;3.58;1.60;;;24.40;40.00;;;;;;4132608;28;20048;-56
2021/07/07 03:33:11;;;;;;;3.58;1.38;;;24.30;40.00;;;;;;4132134;28;20476;-54
2021/07/07 03:35:14;;;;;;;1.90;1.40;;;24.30;40.30;;;;;;4131518;28;20038;-52
2021/07/07 03:37:16;;;;;;;2.25;1.30;;;24.30;40.30;;;;;;4130912;28;20222;-54
2021/07/07 03:39:18;;;;;;;2.05;1.20;;;24.20;40.40;;;;;;4133402;28;20112;-50
2021/07/07 03:41:20;;;;;;;2.00;1.20;;;24.20;40.40;;;;;;4130326;28;20038;-47
2021/07/07 03:43:22;;;;;;;2.00;1.33;;;24.20;40.50;;;;;;4134060;28;20041;-51
2021/07/07 03:45:26;;;;;;;3.90;1.63;;;24.20;40.70;;;;;;4130588;28;20523;-52
2021/07/07 03:47:27;;;;;;;;;;;24.10;40.80;;;;;;4132595;28;20084;-52
2021/07/07 03:49:29;;;;;;;2.38;1.40;;;24.00;40.20;;;;;;4132082;28;19921;-53
2021/07/07 03:51:32;;;;;;;1.63;1.30;;;24.00;40.00;;;;;;4129919;28;20342;-50
2021/07/07 03:53:34;;;;;;;2.38;1.63;;;24.10;39.60;;;;;;4131484;28;20034;-52
2021/07/07 03:55:36;;;;;;;1.73;1.40;;;24.30;39.40;;;;;;4132750;28;20615;-51
2021/07/07 03:57:39;;;;;;;2.55;1.42;;;24.60;39.00;;;;;;4130807;28;20128;-49
2021/07/07 03:59:43;;;;;;;3.03;1.55;;;24.90;38.60;;;;;;4131101;28;20490;-51
2021/07/07 04:01:45;;;;;;;1.20;1.10;;;25.20;38.40;;;;;;4129882;28;20525;-54
2021/07/07 04:03:47;;;;;;;1.52;1.33;;;25.40;38.10;;;;;;4130925;28;20085;-50
2021/07/07 04:05:49;;;;;;;1.20;1.10;;;25.70;37.80;;;;;;4131084;28;20045;-56
2021/07/07 04:07:52;;;;;;;1.70;1.33;;;25.90;37.60;;;;;;4133279;28;20646;-55
2021/07/07 04:09:54;;;;;;;1.42;1.10;;;26.10;38.10;;;;;;4130168;28;20484;-55
2021/07/07 04:12:01;;;;;;;2.60;1.25;;;26.00;37.90;;;;;;4131715;28;20045;-53
2021/07/07 04:14:03;;;;;;;3.28;1.20;;;25.90;38.90;;;;;;4130866;28;20049;-53
2021/07/07 04:16:05;;;;;;;1.30;1.10;;;25.70;39.30;;;;;;4131503;28;20673;-55
2021/07/07 04:18:09;;;;;;;1.70;1.30;;;25.50;39.40;;;;;;4130802;28;20088;-56
2021/07/07 04:20:13;;;;;;;1.85;1.13;;;25.40;39.80;;;;;;4132529;28;20146;-52
2021/07/07 04:22:15;;;;;;;2.33;1.20;;;25.30;40.20;;;;;;4133364;28;20043;-55
2021/07/07 04:24:17;;;;;;;2.00;1.20;;;25.10;40.30;;;;;;4128772;28;20029;-53
2021/07/07 04:26:20;;;;;;;1.43;1.20;;;25.10;40.70;;;;;;4131183;28;20048;-53
2021/07/07 04:28:22;;;;;;;1.13;1.02;;;24.90;40.70;;;;;;4128789;28;21624;-49
2021/07/07 04:30:24;;;;;;;1.65;1.38;;;24.80;40.90;;;;;;4129417;28;20049;-50
2021/07/07 04:32:27;;;;;;;2.15;1.40;;;24.80;41.10;;;;;;4131122;28;20449;-56
2021/07/07 04:34:29;;;;;;;4.32;1.42;;;24.70;41.40;;;;;;4128402;28;20038;-53
2021/07/07 04:36:32;;;;;;;2.08;1.25;;;24.60;41.70;;;;;;4125418;28;20071;-52
2021/07/07 04:38:33;;;;;;;;;;;24.60;41.80;;;;;;4129979;28;20403;-52
2021/07/07 04:40:36;;;;;;;1.23;1.00;;;24.50;41.90;;;;;;4132506;28;19995;-50
2021/07/07 04:42:39;;;;;;;2.80;1.40;;;24.40;41.60;;;;;;4129213;28;20125;-50
2021/07/07 04:44:41;;;;;;;2.38;1.13;;;24.40;41.90;;;;;;4130275;28;20153;-56
2021/07/07 04:46:43;;;;;;;2.22;1.40;;;24.30;42.10;;;;;;4129333;28;20040;-56
2021/07/07 04:48:48;;;;;;;1.88;1.20;;;24.30;42.30;;;;;;4131015;28;20029;-56
2021/07/07 04:50:50;;;;;;;1.75;1.25;;;24.20;42.50;;;;;;4132439;28;20191;-55
2021/07/07 04:52:52;;;;;;;1.40;1.23;;;24.20;42.50;;;;;;4129763;28;20039;-54
2021/07/07 04:54:54;;;;;;;1.40;1.30;;;24.10;42.50;;;;;;4129706;28;20440;-54
2021/07/07 04:56:56;;;;;;;1.80;1.40;;;24.10;42.70;;;;;;4132618;28;20033;-53
2021/07/07 04:58:58;;;;;;;2.35;1.23;;;24.00;42.70;;;;;;4131108;28;20131;-49
2021/07/07 05:01:00;;;;;;;1.30;1.00;;;24.00;42.80;;;;;;4131540;28;20033;-55
2021/07/07 05:03:03;;;;;;;1.65;1.10;;;23.90;42.80;;;;;;4130128;28;20080;-58
2021/07/07 05:05:07;;;;;;;2.42;1.23;;;24.00;42.80;;;;;;4131512;28;20471;-53
2021/07/07 05:07:09;;;;;;;4.43;1.45;;;24.00;42.90;;;;;;4131567;28;20025;-53
2021/07/07 05:09:11;;;;;;;2.70;1.38;;;23.90;43.50;;;;;;4127297;28;20072;-56
2021/07/07 05:11:13;;;;;;;2.27;1.23;;;23.90;42.90;;;;;;4129271;28;20414;-52
2021/07/07 05:13:17;;;;;;;1.08;1.00;;;23.80;42.90;;;;;;4130180;28;20286;-55
2021/07/07 05:15:20;;;;;;;2.17;1.40;;;23.80;43.10;;;;;;4129397;28;20134;-52
2021/07/07 05:17:23;;;;;;;1.98;1.40;;;23.80;43.20;;;;;;4130676;28;20102;-53
2021/07/07 05:19:26;;;;;;;1.70;1.27;;;23.70;43.20;;;;;;4132182;28;20533;-56
2021/07/07 05:21:28;;;;;;;2.03;1.50;;;23.80;43.10;;;;;;4129167;28;20345;-56
2021/07/07 05:23:33;;;;;;;1.83;1.25;;;23.80;42.90;;;;;;4132579;28;20042;-53
2021/07/07 05:25:40;;;;;;;1.55;1.02;;;23.70;43.10;;;;;;4129580;28;20091;-56
2021/07/07 05:27:43;;;;;;;1.60;1.20;;;23.70;43.20;;;;;;4125950;28;21322;-57
2021/07/07 05:29:45;;;;;;;2.53;1.23;;;23.60;43.00;;;;;;4124935;28;20083;-49
2021/07/07 05:31:49;;;;;;;1.80;1.30;;;23.60;43.00;;;;;;4125249;28;21115;-50
2021/07/07 05:33:53;;;;;;;2.22;1.30;;;23.60;43.00;;;;;;4126403;28;20033;-47
2021/07/07 05:35:55;;;;;;;1.35;1.20;;;23.60;43.00;;;;;;4130382;28;20663;-52
2021/07/07 05:37:57;;;;;;;2.60;1.00;;;23.70;42.90;;;;;;4131806;28;20033;-53
2021/07/07 05:39:59;;;;;;;3.25;1.30;;;23.70;42.90;;;;;;4128998;28;20030;-52
2021/07/07 05:42:01;;;;;;;2.83;1.33;;;23.70;42.90;;;;;;4129977;28;20091;-53
2021/07/07 05:44:04;;;;;;;1.38;1.10;;;23.70;42.80;;;;;;4128310;28;20041;-53
2021/07/07 05:46:06;;;;;;;1.40;1.10;;;23.70;42.80;;;;;;4130840;28;20339;-47
2021/07/07 05:48:08;;;;;;;4.70;1.40;;;23.70;42.90;;;;;;4129121;28;20033;-53
2021/07/07 05:50:10;;;;;;;1.90;1.30;;;23.60;42.80;;;;;;4131953;28;20029;-51
2021/07/07 05:52:12;;;;;;;1.67;1.05;;;23.60;42.60;;;;;;4130460;28;20630;-49
2021/07/07 05:54:15;;;;;;;2.67;1.20;;;23.60;42.80;;;;;;4130020;28;20064;-53
2021/07/07 05:56:17;;;;;;;1.25;1.13;;;23.60;42.90;;;;;;4125207;28;20741;-50
2021/07/07 05:58:19;;;;;;;2.03;1.05;;;23.50;42.90;;;;;;4130336;28;20029;-46
2021/07/07 06:00:24;;;;;;;2.00;1.10;;;23.50;42.90;;;;;;4130417;28;20164;-50
2021/07/07 06:02:26;;;;;;;1.67;1.20;;;23.50;42.90;;;;;;4124728;28;20700;-52
2021/07/07 06:04:28;;;;;;;1.50;1.10;;;23.40;43.10;;;;;;4129464;28;20479;-57
2021/07/07 06:06:30;;;;;;;1.42;1.15;;;23.40;43.00;;;;;;4126446;28;20525;-56
2021/07/07 06:08:32;;;;;;;1.77;1.13;;;23.40;43.00;;;;;;4131689;28;20408;-57
2021/07/07 06:10:35;;;;;;;1.40;1.30;;;23.40;43.30;;;;;;4130669;28;20037;-51
2021/07/07 06:12:37;;;;;;;2.83;1.55;;;23.30;43.10;;;;;;4130722;28;20061;-49
2021/07/07 06:14:39;;;;;;;1.27;1.10;;;23.30;43.40;;;;;;4128681;28;20730;-56
2021/07/07 06:16:41;;;;;;;2.22;1.60;;;23.30;43.40;;;;;;4130568;28;20111;-48
2021/07/07 06:18:43;;;;;;;2.67;1.33;;;23.20;43.30;;;;;;4128286;28;20273;-50
2021/07/07 06:20:46;;;;;;;2.53;1.15;;;23.20;43.50;;;;;;4131035;28;20159;-56
2021/07/07 06:22:48;;;;;;;1.60;1.13;;;23.10;43.60;;;;;;4128658;28;20037;-52
2021/07/07 06:24:50;;;;;;;1.63;1.10;;;23.10;43.40;;;;;;4130366;28;20431;-52
2021/07/07 06:26:52;;;;;;;1.75;1.10;;;23.10;43.70;;;;;;4130919;28;20051;-50
2021/07/07 06:28:55;;;;;;;3.22;1.17;;;23.00;43.50;;;;;;4130257;28;20068;-49
2021/07/07 06:30:57;;;;;;;2.75;1.35;;;23.00;43.70;;;;;;4128210;28;20037;-50
2021/07/07 06:33:01;;;;;;;7.47;1.45;;;23.00;43.50;;;;;;4127137;28;20037;-49
2021/07/07 06:35:04;;;;;;;2.63;1.33;;;23.00;43.70;;;;;;4130103;28;20174;-53
2021/07/07 06:37:06;;;;;;;4.60;1.40;;;22.90;43.50;;;;;;4127859;28;20056;-51
2021/07/07 06:39:08;;;;;;;2.25;1.30;;;23.00;43.70;;;;;;4130405;28;20129;-49
2021/07/07 06:41:10;;;;;;;2.22;1.33;;;23.10;43.40;;;;;;4127039;28;20087;-48
2021/07/07 06:43:14;;;;;;;4.78;1.58;;;23.20;43.00;;;;;;4129651;28;20084;-52
2021/07/07 06:45:16;;;;;;;2.58;1.35;;;23.00;43.40;;;;;;4130274;28;20034;-46
2021/07/07 06:47:18;;;;;;;2.63;1.35;;;22.90;43.50;;;;;;4131166;28;20126;-50
2021/07/07 06:49:21;;;;;;;1.85;1.20;;;22.80;43.70;;;;;;4129936;28;20042;-47
2021/07/07 06:51:23;;;;;;;2.22;1.33;;;22.80;44.00;;;;;;4131138;28;20406;-49
2021/07/07 06:53:25;;;;;;;2.67;1.55;;;22.60;44.60;;;;;;4129362;28;20143;-50
2021/07/07 06:55:28;;;;;;;5.07;1.48;;;22.60;44.10;;;;;;4131406;28;20783;-54
2021/07/07 06:57:34;;;;;;;2.97;1.20;;;22.50;44.20;;;;;;4128570;28;20030;-50
2021/07/07 06:59:36;;;;;;;1.85;1.30;;;22.50;44.50;;;;;;4130089;28;20038;-49
2021/07/07 07:01:38;;;;;;;4.10;1.50;;;22.40;44.50;;;;;;4128050;28;20479;-50
2021/07/07 07:03:40;;;;;;;3.85;1.65;;;22.30;44.60;;;;;;4129510;28;20129;-48
2021/07/07 07:05:43;;;;;;;2.28;1.40;;;22.30;44.60;;;;;;4130496;28;20037;-51
2021/07/07 07:07:45;;;;;;;4.68;1.60;;;22.30;44.70;;;;;;4128694;28;20186;-49
2021/07/07 07:09:47;;;;;;;4.60;2.03;;;22.20;44.90;;;;;;4125617;28;20064;-47
2021/07/07 07:11:49;;;;;;;3.75;1.90;;;;;;;;;;4129824;28;20128;-47
2021/07/07 07:13:51;;;;;;;2.63;2.05;;;;;;;;;;4132792;28;20041;-49
2021/07/07 07:15:53;;;;;;;4.72;2.20;;;;;;;;;;4133665;28;20094;-53
2021/07/07 07:17:55;;;;;;;3.67;1.77;;;;;;;;;;4133559;28;20025;-50
2021/07/07 07:19:57;;;;;;;4.10;2.22;;;;;;;;;;4130193;28;20063;-52
2021/07/07 07:21:59;;;;;;;2.78;1.90;;;;;;;;;;4132713;28;20037;-51
2021/07/07 07:24:01;;;;;;;5.10;2.20;;;;;;;;;;4131951;28;20334;-48
2021/07/07 07:26:03;;;;;;;4.35;2.00;;;;;;;;;;4131016;28;20140;-48
2021/07/07 07:28:06;;;;;;;4.00;2.50;;;;;;;;;;4131900;28;20033;-50
2021/07/07 07:30:09;;;;;;;7.95;2.63;;;;;;;;;;4130051;28;20431;-48
2021/07/07 07:32:11;;;;;;;3.75;2.28;;;;;;;;;;4143329;28;20485;-47
2021/07/07 07:34:14;;;;;;;4.00;2.10;;;;;;;;;;4145501;28;20030;-50
2021/07/07 07:36:16;;;;;;;5.30;2.33;;;;;;;;;;4145379;28;20026;-49
2021/07/07 07:38:48;;;;;;;3.10;2.13;;;;;;;;;;4152410;28;20075;-55
2021/07/07 07:40:51;;;;;;;3.90;2.10;;;22.20;45.00;;;;;;4139948;28;22985;-57
2021/07/07 07:42:53;;;;;;;4.88;2.45;;;21.60;45.60;;;;;;4132521;28;20135;-49
2021/07/07 07:44:56;;;;;;;4.47;2.30;;;21.50;45.40;;;;;;4132126;28;20891;-53
2021/07/07 07:46:58;;;;;;;4.63;2.30;;;21.40;45.60;;;;;;4133367;28;20034;-48
2021/07/07 07:49:01;;;;;;;5.05;2.53;;;21.40;45.80;;;;;;4131824;28;20021;-47
2021/07/07 07:51:03;;;;;;;4.22;2.65;;;21.40;46.00;;;;;;4128710;28;20041;-48
2021/07/07 07:53:05;;;;;;;3.95;2.13;;;21.40;46.20;;;;;;4132630;28;20030;-48
2021/07/07 07:55:08;;;;;;;2.78;2.05;;;21.30;46.20;;;;;;4129201;28;20037;-49
2021/07/07 07:57:11;;;;;;;4.63;2.30;;;21.30;46.30;;;;;;4129216;28;20446;-52
2021/07/07 07:59:13;;;;;;;4.20;2.33;;;21.20;46.30;;;;;;4128169;28;20106;-48
2021/07/07 08:01:15;;;;;;;3.33;1.95;;;21.20;46.50;;;;;;4132471;28;20133;-53
2021/07/07 08:03:17;;;;;;;3.63;2.22;;;21.20;46.50;;;;;;4131726;28;20044;-53
2021/07/07 08:05:20;;;;;;;3.42;1.90;;;21.20;46.60;;;;;;4128985;28;20035;-48
2021/07/07 08:07:26;;;;;;;3.03;2.10;;;21.10;46.60;;;;;;4132265;28;20642;-49
2021/07/07 08:09:28;;;;;;;3.28;1.90;;;21.10;46.70;;;;;;4130358;28;20029;-51
2021/07/07 08:11:31;;;;;;;4.65;2.05;;;21.10;47.00;;;;;;4133326;28;20037;-51
2021/07/07 08:13:33;;;;;;;3.63;2.45;;;21.10;47.10;;;;;;4132084;28;20144;-47
2021/07/07 08:15:35;;;;;;;4.80;2.00;;;21.00;47.00;;;;;;4132612;28;20029;-52
2021/07/07 08:17:38;;;;;;;5.17;2.00;;;21.00;47.00;;;;;;4130774;28;20040;-53
2021/07/07 08:19:40;;;;;;;3.72;2.20;;;21.00;47.10;;;;;;4130878;28;20909;-46
2021/07/07 08:21:42;;;;;;;3.97;2.05;;;21.00;47.40;;;;;;4132241;28;20034;-51
2021/07/07 08:23:44;;;;;;;4.05;2.17;;;20.90;48.20;;;;;;4132315;28;20037;-52
2021/07/07 08:25:47;;;;;;;4.22;2.17;;;20.90;47.90;;;;;;4129218;28;20053;-53
2021/07/07 08:27:49;;;;;;;3.95;2.10;;;20.90;48.00;;;;;;4126802;28;20569;-47
2021/07/07 08:29:52;;;;;;;3.72;2.17;;;20.90;47.90;;;;;;4129546;28;20377;-53
2021/07/07 08:31:54;;;;;;;3.53;2.35;;;20.80;48.20;;;;;;4129346;28;20025;-52
2021/07/07 08:33:56;;;;;;;2.90;2.40;;;;;;;;;;4129092;28;20117;-50
2021/07/07 08:35:58;;;;;;;4.25;2.35;;;;;;;;;;4126775;28;20738;-54
2021/07/07 08:38:00;;;;;;;4.53;2.38;;;;;;;;;;4127658;28;20684;-52
2021/07/07 08:40:02;;;;;;;3.28;2.45;;;;;;;;;;4128324;28;20544;-49
2021/07/07 08:42:05;;;;;;;4.10;2.20;;;;;;;;;;4128455;28;20087;-54
2021/07/07 08:44:07;;;;;;;4.03;1.95;;;;;;;;;;4128675;28;20199;-55
2021/07/07 08:46:09;;;;;;;3.47;2.40;;;;;;;;;;4130525;28;20237;-48
2021/07/07 08:48:11;;;;;;;4.63;1.92;;;;;;;;;;4142699;28;20278;-53
2021/07/07 08:50:15;;;;;;;2.67;2.03;;;;;;;;;;4130039;28;20048;-52
2021/07/07 08:52:17;;;;;;;3.40;2.13;;;;;;;;;;4128862;28;20563;-49
2021/07/07 08:54:20;;;;;;;4.05;2.35;;;;;;;;;;4128361;28;20021;-52
2021/07/07 08:56:22;;;;;;;2.80;2.00;;;;;;;;;;4127380;28;20034;-51
2021/07/07 08:58:24;;;;;;;2.90;2.10;;;;;;;;;;4128424;28;20038;-50
2021/07/07 09:00:33;;;;;;;4.05;2.30;;;;;;;;;;4126074;28;20084;-54
2021/07/07 09:02:46;;;;;;;4.57;2.00;;;;;;;;;;4127042;28;20062;-57
2021/07/07 09:04:48;;;;;;;3.55;2.42;;;;;;;;;;4128441;28;20029;-48
2021/07/07 09:06:57;;;;;;;4.35;2.50;;;;;;;;;;4126502;28;20036;-52
2021/07/07 09:08:59;;;;;;;5.20;3.17;;;;;;;;;;4127486;28;20056;-48
2021/07/07 09:11:22;;;;;;;5.47;3.00;;;;;;;;;;4123604;28;20580;-47
2021/07/07 09:13:24;;;;;;;4.47;3.30;;;;;;;;;;4124434;28;20045;-54
2021/07/07 09:15:26;;;;;;;5.10;3.47;;;;;;;;;;4126916;28;20029;-60
2021/07/07 09:17:28;;;;;;;5.78;3.08;;;;;;;;;;4125940;28;20148;-53
2021/07/07 09:19:36;;;;;;;4.88;2.95;;;;;;;;;;4126290;28;20638;-56
2021/07/07 09:21:47;;;;;;;5.30;2.90;;;;;;;;;;4126266;28;20036;-58
2021/07/07 09:23:49;;;;;;;5.00;2.80;;;;;;;;;;4126992;28;20163;-56
2021/07/07 09:25:56;;;;;;;6.53;2.88;;;;;;;;;;4127056;28;20034;-57
2021/07/07 09:28:18;;;;;;;5.65;3.03;;;20.80;48.10;;;;;;4126190;28;20045;-57
2021/07/07 09:30:21;;;;;;;4.95;2.88;;;22.60;45.70;;;;;;4126484;28;20037;-58
2021/07/07 09:32:29;;;;;;;4.20;2.60;;;22.90;44.40;;;;;;4124037;28;20157;-56
2021/07/07 09:34:37;;;;;;;3.67;2.58;;;23.30;43.90;;;;;;4127131;28;20135;-56
2021/07/07 09:36:42;;;;;;;4.20;2.67;;;23.60;43.50;;;;;;4125066;28;20089;-60
2021/07/07 09:38:45;;;;;;;4.15;2.85;;;23.80;43.10;;;;;;4127974;28;20056;-58
2021/07/07 09:40:47;;;;;;;4.35;2.85;;;24.10;42.70;;;;;;4124571;28;20032;-60
2021/07/07 09:42:50;;;;;;;5.47;2.70;;;24.40;42.50;;;;;;4125771;28;20042;-60
2021/07/07 09:44:53;;;;;;;5.60;2.75;;;24.60;42.10;;;;;;4124341;28;20072;-59
2021/07/07 09:46:55;;;;;;;3.67;2.67;;;24.80;42.40;;;;;;4128321;28;20041;-58
2021/07/07 09:48:57;;;;;;;5.53;2.70;;;25.10;41.50;;;;;;4125828;28;20127;-60
2021/07/07 09:50:59;;;;;;;4.10;2.72;;;25.30;41.30;;;;;;4124525;28;20057;-60
2021/07/07 09:53:02;;;;;;;3.60;2.63;;;25.40;41.70;;;;;;4124924;28;20553;-58
2021/07/07 09:55:09;;;;;;;3.92;2.58;;;25.40;41.50;;;;;;4125723;28;20037;-56
2021/07/07 09:57:11;;;;;;;4.60;2.97;;;25.10;41.00;;;;;;4124480;28;20030;-56
2021/07/07 09:59:14;;;;;;;8.60;3.40;;;24.90;41.30;;;;;;4123079;28;20546;-59
2021/07/07 10:01:16;;;;;;;8.98;3.00;;;24.60;41.80;;;;;;4125595;28;20346;-59
2021/07/07 10:03:18;;;;;;;4.70;2.95;;;24.40;42.10;;;;;;4127417;28;20147;-56
2021/07/07 10:05:21;;;;;;;4.70;3.10;;;24.10;42.30;;;;;;4129867;28;20107;-58
2021/07/07 10:07:24;;;;;;;6.35;3.05;;;23.90;42.60;;;;;;4128073;28;20229;-54
2021/07/07 10:09:27;;;;;;;5.18;3.22;;;23.70;42.80;;;;;;4128170;28;20173;-53
2021/07/07 10:11:29;;;;;;;6.68;3.10;;;23.50;42.90;;;;;;4130013;28;20115;-56
2021/07/07 10:13:32;;;;;;;3.90;3.25;;;23.40;43.30;;;;;;4126424;28;20382;-60
2021/07/07 10:15:34;;;;;;;6.47;3.40;;;23.30;43.40;;;;;;4128801;28;20029;-52
2021/07/07 10:17:38;;;;;;;5.28;3.17;;;23.20;43.60;;;;;;4128887;28;20048;-51
2021/07/07 10:19:40;;;;;;;6.15;3.80;;;23.00;43.80;;;;;;4128685;28;20057;-55
2021/07/07 10:21:43;;;;;;;4.28;3.22;;;22.90;43.90;;;;;;4129320;28;20679;-54
2021/07/07 10:23:47;;;;;;;4.82;3.33;;;22.80;43.90;;;;;;4125846;28;20049;-54
2021/07/07 10:25:49;;;;;;;4.78;3.42;;;22.70;44.00;;;;;;4129794;28;20469;-57
2021/07/07 10:27:54;;;;;;;7.80;3.90;;;22.60;44.10;;;;;;4125789;28;20399;-58
2021/07/07 10:29:56;;;;;;;8.68;4.40;;;22.50;44.40;;;;;;4128654;28;20254;-58
2021/07/07 10:32:02;;;;;;;5.07;3.70;;;22.40;44.50;;;;;;4128003;28;20034;-58
2021/07/07 10:34:05;;;;;;;5.88;3.95;;;22.40;44.60;;;;;;4129930;28;20037;-54
2021/07/07 10:36:22;;;;;;;7.70;4.53;;;22.30;44.70;;;;;;4129663;28;20115;-50
2021/07/07 10:38:26;;;;;;;7.57;4.55;;;22.20;44.80;;;;;;4127578;28;20033;-50
2021/07/07 10:40:30;;;;;;;7.07;4.22;;;22.10;44.90;;;;;;4128643;28;20048;-51
2021/07/07 10:42:44;;;;;;;8.25;4.60;;;22.00;44.80;;;;;;4129924;28;20564;-57
2021/07/07 10:44:48;;;;;;;5.90;4.35;;;22.00;44.80;;;;;;4130232;28;20115;-46
2021/07/07 10:46:50;;;;;;;9.90;7.57;;;;;;;;;;4131765;28;21523;-51
2021/07/07 10:49:12;;;;;;;10.10;8.10;;;;;;;;;;4136226;28;20806;-53
2021/07/07 10:51:14;;;;;;;12.32;7.85;;;;;;;;;;4132374;28;20198;-58
2021/07/07 10:53:23;;;;;;;11.52;7.80;;;;;;;;;;4132113;28;20120;-59
2021/07/07 10:55:25;;;;;;;11.18;9.40;;;21.90;44.90;;;;;;4130181;28;20477;-58
2021/07/07 10:57:37;;;;;;;14.90;8.87;;;21.40;44.20;;;;;;4131341;28;20370;-47
2021/07/07 10:59:46;;;;;;;10.32;8.23;;;;;;;;;;4133257;28;20037;-58
2021/07/07 11:01:58;;;;;;;11.85;8.85;;;;;;;;;;4133378;28;20105;-47
2021/07/07 11:04:01;;;;;;;11.13;8.57;;;;;;;;;;4133197;28;20270;-46